Time;durP1;ratioP1;P1;durP2;ratioP2;P2;SDS_P1;SDS_P2;PMS_P1;PMS_P2;Temp;Humidity;BMP_temperature;BMP_pressure;BME280_temperature;BME280_humidity;BME280_pressure;Samples;Min_cycle;Max_cycle;Signal;HPM_P1;HPM_P2
2021/05/26 00:01:35;;;;;;;9.30;3.10;;;;;;;11.13;73.66;100294.31;1761677;80;25377;-74
2021/05/26 00:04:01;;;;;;;9.60;2.80;;;;;;;11.09;73.70;100300.39;1757269;80;25511;-74
2021/05/26 00:06:27;;;;;;;6.73;3.30;;;;;;;11.08;73.68;100304.00;1762659;80;29333;-74
2021/05/26 00:08:53;;;;;;;7.37;2.70;;;;;;;11.05;73.54;100305.16;1760357;80;25365;-74
2021/05/26 00:11:19;;;;;;;5.72;2.95;;;;;;;11.03;73.43;100307.61;1756116;80;32350;-74
2021/05/26 00:13:47;;;;;;;7.50;2.87;;;;;;;11.01;73.60;100313.49;1758015;80;25759;-74
2021/05/26 00:16:16;;;;;;;7.30;2.92;;;;;;;11.01;73.70;100295.19;1754466;80;25192;-74
2021/05/26 00:18:42;;;;;;;4.83;2.72;;;;;;;11.01;73.69;100305.16;1758204;80;26151;-74
2021/05/26 00:21:09;;;;;;;6.22;2.80;;;;;;;11.02;73.60;100305.96;1758197;80;25633;-74
2021/05/26 00:23:37;;;;;;;9.50;2.92;;;;;;;10.98;73.49;100308.11;1757532;80;25201;-74
2021/05/26 00:26:04;;;;;;;7.30;3.45;;;;;;;10.97;73.57;100297.83;1761629;80;25558;-74
2021/05/26 00:28:30;;;;;;;5.78;3.05;;;;;;;10.95;73.50;100295.88;1757958;80;25861;-74
2021/05/26 00:30:58;;;;;;;5.45;2.92;;;;;;;10.93;73.41;100297.33;1759155;80;25600;-74
2021/05/26 00:33:25;;;;;;;5.45;2.80;;;;;;;10.90;73.38;100308.13;1754415;80;26047;-74
2021/05/26 00:35:51;;;;;;;6.65;2.90;;;;;;;10.86;73.43;100305.05;1761411;80;25227;-74
2021/05/26 00:38:17;;;;;;;5.05;2.92;;;;;;;10.84;73.42;100314.05;1752647;80;25438;-74
2021/05/26 00:40:44;;;;;;;8.40;3.10;;;;;;;10.81;73.45;100319.11;1737097;80;25502;-74
2021/05/26 00:43:11;;;;;;;8.50;3.45;;;;;;;10.78;73.47;100324.68;1754116;80;25186;-74
2021/05/26 00:45:37;;;;;;;5.22;3.05;;;;;;;10.75;73.45;100326.33;1756329;80;25485;-74
2021/05/26 00:48:05;;;;;;;4.58;2.58;;;;;;;10.74;73.47;100325.17;1753016;80;25710;-74
2021/05/26 00:50:35;;;;;;;7.37;2.70;;;;;;;10.73;73.39;100334.82;1758039;80;26246;-74
2021/05/26 00:53:06;;;;;;;4.80;2.87;;;;;;;10.73;73.30;100329.59;1758090;80;32997;-74
2021/05/26 00:55:33;;;;;;;9.83;2.80;;;;;;;10.73;73.12;100341.85;1760132;80;25691;-74
2021/05/26 00:58:01;;;;;;;13.25;3.15;;;;;;;10.72;73.29;100338.42;1759310;80;25632;-74
2021/05/26 01:00:30;;;;;;;6.45;2.85;;;;;;;10.69;73.05;100346.58;1760493;80;25665;-74
2021/05/26 01:02:58;;;;;;;;;;;;;;;10.66;73.14;100351.64;1760747;80;25764;-74
2021/05/26 01:05:26;;;;;;;7.80;2.60;;;;;;;10.64;73.05;100340.55;1757736;80;25610;-74
2021/05/26 01:07:53;;;;;;;4.28;2.33;;;;;;;10.62;72.94;100343.82;1757041;80;25607;-74
2021/05/26 01:10:23;;;;;;;5.17;2.90;;;;;;;10.60;73.04;100347.08;1758611;80;25461;-74
2021/05/26 01:13:00;;;;;;;9.05;2.70;;;;;;;10.57;72.84;100344.80;1760510;80;25146;-74
2021/05/26 01:15:26;;;;;;;5.60;2.17;;;;;;;10.55;72.92;100345.45;1758382;80;25512;-74
2021/05/26 01:17:53;;;;;;;5.72;2.70;;;;;;;10.55;72.80;100348.06;1756498;80;25526;-74
2021/05/26 01:20:30;;;;;;;5.53;2.75;;;;;;;10.52;72.72;100342.36;1752963;80;25565;-76
2021/05/26 01:23:00;;;;;;;7.45;2.45;;;;;;;10.49;72.76;100351.84;1759801;80;25560;-76
2021/05/26 01:25:27;;;;;;;5.25;2.90;;;;;;;10.43;72.74;100359.35;1761288;80;25466;-76
2021/05/26 01:27:54;;;;;;;8.95;2.70;;;;;;;10.37;72.67;100361.32;1760955;80;25568;-76
2021/05/26 01:30:21;;;;;;;3.97;2.30;;;;;;;10.33;72.73;100360.49;1732345;80;27300;-76
2021/05/26 01:32:51;;;;;;;9.20;3.20;;;;;;;10.32;72.79;100368.83;1739608;80;25734;-74
2021/05/26 01:35:20;;;;;;;7.33;2.20;;;;;;;10.29;72.73;100370.46;1760052;80;25118;-74
2021/05/26 01:37:48;;;;;;;5.40;2.47;;;;;;;10.25;72.78;100369.11;1758721;80;25627;-74
2021/05/26 01:40:19;;;;;;;5.10;2.17;;;;;;;10.19;72.79;100369.27;1731130;80;25702;-74
2021/05/26 01:42:45;;;;;;;4.40;2.27;;;;;;;10.20;72.84;100371.39;1758758;80;25559;-75
2021/05/26 01:45:16;;;;;;;3.87;2.22;;;;;;;10.18;72.73;100376.80;1756138;80;25588;-75
2021/05/26 01:47:44;;;;;;;4.70;2.15;;;;;;;10.17;72.73;100382.16;1759420;80;25522;-74
2021/05/26 01:50:22;;;;;;;3.85;2.20;;;;;;;10.16;72.68;100384.45;1729796;80;25225;-74
2021/05/26 01:53:01;;;;;;;6.67;2.25;;;;;;;10.14;72.70;100386.41;1759415;80;25735;-75
2021/05/26 01:55:27;;;;;;;6.10;2.33;;;;;;;10.08;72.71;100380.53;1759811;80;25185;-75
2021/05/26 01:57:55;;;;;;;4.42;1.87;;;;;;;10.05;72.90;100386.08;1758776;80;25473;-75
2021/05/26 02:00:23;;;;;;;3.67;2.10;;;;;;;9.98;72.93;100396.33;1756670;80;25553;-75
2021/05/26 02:02:51;;;;;;;4.45;2.05;;;;;;;9.94;73.03;100400.25;1758794;80;25189;-75
2021/05/26 02:05:18;;;;;;;5.20;2.60;;;;;;;9.91;73.07;100394.86;1757305;80;25596;-75
2021/05/26 02:07:44;;;;;;;8.90;2.10;;;;;;;9.85;73.25;100395.97;1757709;80;25169;-75
2021/05/26 02:10:16;;;;;;;5.25;2.55;;;;;;;9.82;73.25;100402.36;1758458;80;25527;-75
2021/05/26 02:12:45;;;;;;;6.85;2.42;;;;;;;9.78;73.32;100403.63;1759727;80;25441;-75
2021/05/26 02:15:14;;;;;;;6.25;2.20;;;;;;;9.74;73.35;100401.84;1760323;80;25887;-75
2021/05/26 02:17:42;;;;;;;5.95;2.30;;;;;;;9.71;73.48;100401.31;1759279;80;25706;-75
2021/05/26 02:20:10;;;;;;;5.20;2.37;;;;;;;9.66;73.68;100407.52;1761550;80;25126;-75
2021/05/26 02:22:39;;;;;;;4.30;2.60;;;;;;;9.59;73.61;100408.62;1761109;80;28870;-75
2021/05/26 02:25:07;;;;;;;5.35;2.20;;;;;;;9.56;73.71;100416.77;1760037;80;25210;-75
2021/05/26 02:27:34;;;;;;;4.05;2.45;;;;;;;9.49;73.96;100418.36;1728607;80;25177;-75
2021/05/26 02:30:00;;;;;;;3.40;1.95;;;;;;;9.46;74.33;100422.09;1757208;80;26588;-75
2021/05/26 02:32:26;;;;;;;6.92;2.20;;;;;;;9.45;74.09;100426.18;1757516;80;26020;-75
2021/05/26 02:34:53;;;;;;;3.70;2.40;;;;;;;9.42;74.31;100418.67;1756516;80;25673;-75
2021/05/26 02:37:19;;;;;;;5.08;2.17;;;;;;;9.40;74.51;100420.11;1759285;80;25164;-75
2021/05/26 02:39:44;;;;;;;3.90;2.22;;;;;;;9.38;74.29;100428.58;1758470;80;25159;-75
2021/05/26 02:42:11;;;;;;;7.50;2.92;;;;;;;9.36;74.32;100422.72;1759190;80;26312;-75
2021/05/26 02:44:37;;;;;;;4.90;2.52;;;;;;;9.37;74.28;100428.75;1757223;80;25405;-75
2021/05/26 02:47:04;;;;;;;7.97;3.10;;;;;;;9.36;74.32;100426.63;1758853;80;25241;-75
2021/05/26 02:49:32;;;;;;;3.75;2.02;;;;;;;9.33;74.26;100426.95;1728918;80;25240;-75
2021/05/26 02:51:58;;;;;;;4.35;2.30;;;;;;;9.34;74.28;100426.77;1757811;80;30445;-75
2021/05/26 02:54:24;;;;;;;7.10;2.55;;;;;;;9.35;74.28;100427.59;1754929;80;25742;-75
2021/05/26 02:56:50;;;;;;;8.40;2.40;;;;;;;9.30;74.22;100424.16;1758071;80;25492;-75
2021/05/26 02:59:24;;;;;;;4.45;2.60;;;;;;;9.29;74.35;100425.11;1729495;80;25201;-74
2021/05/26 03:02:10;;;;;;;4.92;2.60;;;;;;;9.26;74.25;100425.43;1756818;80;25742;-73
2021/05/26 03:04:43;;;;;;;5.83;2.47;;;;;;;9.30;74.30;100428.08;1754944;80;25659;-73
2021/05/26 03:07:11;;;;;;;5.33;2.40;;;;;;;9.31;74.28;100436.70;1757157;80;25739;-73
2021/05/26 03:09:39;;;;;;;5.95;2.27;;;;;;;9.28;74.33;100439.14;1755911;80;25149;-74
2021/05/26 03:12:06;;;;;;;5.10;2.15;;;;;;;9.28;74.22;100437.83;1757748;80;25765;-74
2021/05/26 03:14:40;;;;;;;3.25;1.60;;;;;;;9.29;74.25;100439.95;1758970;80;25158;-76
2021/05/26 03:17:08;;;;;;;5.15;2.15;;;;;;;9.32;74.21;100439.64;1754492;80;25435;-76
2021/05/26 03:19:37;;;;;;;3.80;2.33;;;;;;;9.31;74.17;100439.31;1753119;80;25707;-76
2021/05/26 03:22:11;;;;;;;3.75;1.87;;;;;;;9.30;74.16;100439.81;1706718;80;25365;-74
2021/05/26 03:24:55;;;;;;;7.90;2.40;;;;;;;9.30;74.15;100438.51;1759255;80;25143;-74
2021/05/26 03:27:26;;;;;;;4.75;1.65;;;;;;;9.31;74.21;100441.44;1759531;80;33393;-74
2021/05/26 03:29:49;;;;;;;4.40;2.27;;;;;;;9.37;74.07;100441.30;1758522;80;25909;-74
2021/05/26 03:32:15;;;;;;;3.73;1.93;;;;;;;9.40;73.95;100438.88;1739859;80;25277;-74
2021/05/26 03:34:42;;;;;;;3.65;2.10;;;;;;;9.44;73.90;100434.96;1754924;80;25547;-76
2021/05/26 03:37:14;;;;;;;5.53;1.65;;;;;;;9.50;73.97;100440.89;1759400;80;25158;-76
2021/05/26 03:39:42;;;;;;;3.30;1.92;;;;;;;9.55;73.80;100438.14;1735048;80;26507;-76
2021/05/26 03:42:08;;;;;;;4.65;1.87;;;;;;;9.61;73.66;100434.08;1760091;80;25573;-76
2021/05/26 03:44:34;;;;;;;3.60;1.85;;;;;;;9.66;73.43;100433.13;1734783;80;25570;-75
2021/05/26 03:47:01;;;;;;;3.72;1.85;;;;;;;9.70;73.57;100440.95;1730458;80;25259;-75
2021/05/26 03:49:28;;;;;;;6.70;1.90;;;;;;;9.71;73.27;100440.46;1754908;80;25559;-74
2021/05/26 03:51:54;;;;;;;4.78;1.60;;;;;;;9.73;73.33;100439.83;1757269;80;25637;-74
2021/05/26 03:54:21;;;;;;;3.95;1.82;;;;;;;9.78;73.14;100438.88;1759617;80;25169;-74
2021/05/26 03:56:50;;;;;;;2.92;1.67;;;;;;;9.79;72.93;100437.88;1726409;80;25878;-76
2021/05/26 03:59:18;;;;;;;3.40;1.60;;;;;;;9.80;72.63;100438.73;1760828;80;25547;-75
2021/05/26 04:01:45;;;;;;;3.00;1.95;;;;;;;9.81;72.75;100446.38;1759063;80;25560;-75
2021/05/26 04:04:11;;;;;;;3.42;1.80;;;;;;;9.84;72.77;100446.06;1760365;80;25602;-76
2021/05/26 04:06:37;;;;;;;4.45;2.02;;;;;;;9.86;72.73;100443.31;1749402;80;25531;-74
2021/05/26 04:09:04;;;;;;;2.30;1.40;;;;;;;9.89;72.82;100439.88;1755806;80;25496;-73
2021/05/26 04:11:32;;;;;;;4.22;1.90;;;;;;;9.93;72.73;100443.83;1760197;80;25672;-73
2021/05/26 04:14:00;;;;;;;3.50;1.90;;;;;;;9.97;72.62;100439.91;1762157;80;26634;-75
2021/05/26 04:16:28;;;;;;;3.58;1.72;;;;;;;10.03;72.42;100444.17;1755243;80;25676;-74
2021/05/26 04:19:14;;;;;;;5.80;1.67;;;;;;;10.05;72.16;100450.87;1758097;80;25500;-74
2021/05/26 04:21:40;;;;;;;4.90;1.67;;;;;;;10.09;72.37;100456.58;1737980;80;26920;-74
2021/05/26 04:24:08;;;;;;;6.58;1.70;;;;;;;10.14;72.23;100470.80;1761635;80;25249;-74
2021/05/26 04:26:36;;;;;;;3.27;1.60;;;;;;;10.19;72.30;100469.83;1758326;80;25190;-74
2021/05/26 04:29:03;;;;;;;4.62;1.52;;;;;;;10.24;71.73;100469.36;1750369;80;26395;-74
2021/05/26 04:31:30;;;;;;;2.33;1.70;;;;;;;10.28;71.29;100469.88;1758810;80;25203;-72
2021/05/26 04:33:56;;;;;;;3.40;1.60;;;;;;;10.32;71.67;100468.10;1756228;80;25708;-72
2021/05/26 04:36:22;;;;;;;4.00;1.80;;;;;;;10.38;71.25;100458.80;1759405;80;28013;-74
2021/05/26 04:38:48;;;;;;;4.30;1.50;;;;;;;10.43;71.09;100472.20;1757981;80;25639;-74
2021/05/26 04:41:14;;;;;;;2.95;1.42;;;;;;;10.49;71.20;100465.02;1759894;80;34473;-74
2021/05/26 04:43:41;;;;;;;4.25;1.42;;;;;;;10.57;71.12;100472.87;1756130;80;25379;-73
2021/05/26 04:46:07;;;;;;;1.72;1.30;;;;;;;10.64;70.87;100471.75;1753871;80;25587;-73
2021/05/26 04:48:33;;;;;;;1.70;1.30;;;;;;;10.71;71.12;100475.82;1757906;80;26310;-74
2021/05/26 04:50:59;;;;;;;2.33;1.67;;;;;;;10.75;70.22;100477.11;1755365;80;25552;-73
2021/05/26 04:53:25;;;;;;;1.95;1.52;;;;;;;10.78;70.16;100480.24;1758121;80;25674;-73
2021/05/26 04:55:51;;;;;;;2.87;1.50;;;;;;;10.81;70.42;100477.79;1753941;80;32183;-73
2021/05/26 04:58:17;;;;;;;2.95;1.52;;;;;;;10.87;70.23;100477.13;1758144;80;25786;-73
2021/05/26 05:00:43;;;;;;;2.50;1.42;;;;;;;10.94;70.50;100480.73;1751274;80;25414;-74
2021/05/26 05:03:09;;;;;;;2.02;1.60;;;;;;;11.02;70.39;100477.27;1755408;80;25552;-74
2021/05/26 05:05:35;;;;;;;2.70;1.40;;;;;;;11.13;70.41;100478.27;1758468;80;34707;-73
2021/05/26 05:08:05;;;;;;;3.15;1.10;;;;;;;11.22;70.22;100476.45;1759176;80;25195;-74
2021/05/26 05:10:33;;;;;;;4.03;1.62;;;;;;;11.28;70.06;100480.52;1756877;80;25593;-75
2021/05/26 05:12:59;;;;;;;3.75;1.40;;;;;;;11.32;69.91;100487.53;1758430;80;25468;-74
2021/05/26 05:15:26;;;;;;;3.62;1.40;;;;;;;11.33;69.34;100482.14;1734275;80;25617;-74
2021/05/26 05:17:52;;;;;;;3.65;1.75;;;;;;;11.36;69.53;100478.88;1753066;80;25435;-75
2021/05/26 05:20:20;;;;;;;2.87;1.60;;;;;;;11.36;68.53;100471.02;1759684;80;32372;-72
2021/05/26 05:22:52;;;;;;;2.40;1.32;;;;;;;11.36;69.06;100469.22;1761952;80;25671;-74
2021/05/26 05:25:19;;;;;;;2.17;1.30;;;;;;;11.38;68.38;100477.73;1756995;80;25577;-75
2021/05/26 05:27:45;;;;;;;2.42;1.20;;;;;;;11.37;67.87;100476.57;1749657;80;25580;-75
2021/05/26 05:30:12;;;;;;;5.78;2.17;;;;;;;11.35;67.80;100479.38;1757615;80;25581;-75
2021/05/26 05:32:39;;;;;;;3.22;1.45;;;;;;;11.40;68.55;100480.16;1758996;80;25520;-75
2021/05/26 05:35:07;;;;;;;1.77;1.17;;;;;;;11.51;68.34;100479.80;1753737;80;26546;-74
2021/05/26 05:37:34;;;;;;;2.33;1.42;;;;;;;11.56;67.74;100487.97;1757022;80;25505;-74
2021/05/26 05:40:00;;;;;;;3.83;1.60;;;;;;;11.62;67.77;100480.77;1755894;80;25197;-74
2021/05/26 05:42:29;;;;;;;4.20;1.50;;;;;;;11.70;66.82;100483.36;1756979;80;25119;-75
2021/05/26 05:44:56;;;;;;;2.52;1.30;;;;;;;11.70;66.47;100479.44;1749747;80;25516;-74
2021/05/26 05:47:22;;;;;;;3.60;1.75;;;;;;;11.70;66.56;100478.13;1748217;80;25489;-74
2021/05/26 05:49:48;;;;;;;2.60;1.27;;;;;;;11.76;66.62;100478.75;1744936;80;26485;-73
2021/05/26 05:52:14;;;;;;;3.02;0.98;;;;;;;11.85;66.55;100480.03;1724416;80;25360;-74
2021/05/26 05:54:40;;;;;;;6.15;1.37;;;;;;;11.89;66.13;100473.48;1744755;80;34744;-74
2021/05/26 05:57:07;;;;;;;2.17;1.22;;;;;;;11.91;66.21;100482.80;1754436;80;32321;-74
2021/05/26 05:59:34;;;;;;;1.80;1.17;;;;;;;11.97;66.30;100476.05;1746503;80;25645;-74
2021/05/26 06:02:00;;;;;;;3.42;1.42;;;;;;;12.04;66.23;100482.76;1748213;80;25240;-73
2021/05/26 06:04:27;;;;;;;3.70;1.35;;;;;;;12.05;64.77;100482.56;1748736;80;25228;-72
2021/05/26 06:06:53;;;;;;;3.10;1.20;;;;;;;12.05;65.07;100491.73;1749133;80;25886;-73
2021/05/26 06:09:20;;;;;;;2.62;1.40;;;;;;;12.07;64.23;100486.34;1753799;80;25591;-75
2021/05/26 06:11:49;;;;;;;2.70;2.02;;;;;;;12.11;64.34;100494.16;1754587;80;25684;-73
2021/05/26 06:14:19;;;;;;;2.72;1.30;;;;;;;12.20;64.55;100483.98;1759218;80;25227;-74
2021/05/26 06:16:44;;;;;;;4.08;1.37;;;;;;;12.27;64.25;100490.64;1756721;80;25190;-75
2021/05/26 06:19:10;;;;;;;1.52;1.00;;;;;;;12.26;63.39;100483.78;1760123;80;25126;-74
2021/05/26 06:21:36;;;;;;;1.72;1.10;;;;;;;12.25;63.24;100495.23;1729451;80;32377;-75
2021/05/26 06:24:02;;;;;;;2.35;1.10;;;;;;;12.21;63.83;100482.48;1733376;80;25527;-73
2021/05/26 06:26:32;;;;;;;5.53;1.62;;;;;;;12.24;63.90;100489.69;1753646;80;25642;-73
2021/05/26 06:29:00;;;;;;;3.47;1.30;;;;;;;12.33;64.16;100489.95;1752009;80;25570;-72
2021/05/26 06:31:26;;;;;;;5.03;1.32;;;;;;;12.41;63.85;100482.88;1722062;80;25791;-73
2021/05/26 06:33:52;;;;;;;2.67;1.45;;;;;;;12.51;64.19;100480.00;1752834;80;25134;-73
2021/05/26 06:36:18;;;;;;;3.08;1.17;;;;;;;12.56;62.78;100477.67;1753452;80;25671;-72
2021/05/26 06:38:44;;;;;;;4.90;1.30;;;;;;;12.61;62.91;100487.66;1761129;80;31079;-73
2021/05/26 06:41:11;;;;;;;2.60;1.22;;;;;;;12.65;62.83;100491.04;1748606;80;25727;-73
2021/05/26 06:43:37;;;;;;;2.60;1.15;;;;;;;12.75;61.84;100495.25;1753100;80;26278;-74
2021/05/26 06:46:04;;;;;;;2.50;1.12;;;;;;;12.80;61.98;100485.05;1752934;80;25538;-72
2021/05/26 06:48:30;;;;;;;4.37;1.20;;;;;;;12.86;62.89;100485.15;1756977;80;25399;-73
2021/05/26 06:50:57;;;;;;;1.35;1.10;;;;;;;12.98;61.84;100492.59;1754198;80;25450;-71
2021/05/26 06:53:25;;;;;;;1.90;1.05;;;;;;;13.07;62.17;100487.61;1726705;80;25179;-73
2021/05/26 06:55:53;;;;;;;3.77;1.30;;;;;;;13.23;62.49;100488.77;1751538;80;25720;-74
2021/05/26 06:58:19;;;;;;;2.70;1.20;;;;;;;13.28;62.05;100481.67;1755252;80;25623;-72
2021/05/26 07:00:46;;;;;;;2.62;1.87;;;;;;;13.41;62.62;100479.75;1750269;80;25549;-72
2021/05/26 07:03:12;;;;;;;1.98;1.02;;;;;;;13.47;58.49;100484.27;1755676;80;25592;-72
2021/05/26 07:05:39;;;;;;;3.90;1.10;;;;;;;13.44;59.20;100493.33;1757412;80;25553;-73
2021/05/26 07:08:05;;;;;;;5.17;1.05;;;;;;;13.41;60.29;100486.31;1726694;80;25875;-73
2021/05/26 07:10:31;;;;;;;3.05;0.80;;;;;;;13.54;59.95;100491.75;1754630;80;25184;-72
2021/05/26 07:12:57;;;;;;;1.80;1.07;;;;;;;13.63;59.88;100490.66;1754789;80;26352;-73
2021/05/26 07:15:24;;;;;;;3.27;1.02;;;;;;;13.70;58.97;100490.26;1753917;80;25600;-73
2021/05/26 07:17:50;;;;;;;3.50;1.20;;;;;;;13.72;58.71;100498.78;1754085;80;25135;-72
2021/05/26 07:20:16;;;;;;;2.58;1.05;;;;;;;13.75;59.43;100504.17;1754031;80;25427;-73
2021/05/26 07:22:43;;;;;;;3.75;1.20;;;;;;;13.67;57.73;100509.52;1756798;80;25504;-73
2021/05/26 07:25:09;;;;;;;2.62;1.12;;;;;;;13.61;59.10;100522.03;1751731;80;25620;-73
2021/05/26 07:27:36;;;;;;;3.15;1.10;;;;;;;13.53;58.66;100503.23;1756392;80;25448;-72
2021/05/26 07:30:05;;;;;;;2.47;1.07;;;;;;;13.59;60.03;100508.30;1734181;80;26375;-73
2021/05/26 07:32:31;;;;;;;1.92;1.07;;;;;;;13.62;57.73;100506.61;1754899;80;25174;-72
2021/05/26 07:34:57;;;;;;;2.12;1.12;;;;;;;13.66;59.30;100506.55;1752048;80;25259;-74
2021/05/26 07:37:23;;;;;;;1.60;0.93;;;;;;;13.68;57.15;100504.56;1755082;80;25396;-74
2021/05/26 07:39:50;;;;;;;2.47;1.00;;;;;;;13.68;58.27;100496.69;1759052;80;31930;-74
2021/05/26 07:42:17;;;;;;;1.27;0.85;;;;;;;13.74;58.24;100494.64;1721029;80;25636;-74
2021/05/26 07:44:43;;;;;;;4.42;1.12;;;;;;;13.76;58.51;100497.91;1757833;80;25599;-73
2021/05/26 07:47:09;;;;;;;2.80;1.00;;;;;;;13.87;59.40;100492.19;1756826;80;32406;-71
2021/05/26 07:49:35;;;;;;;3.42;1.15;;;;;;;14.07;58.73;100492.41;1755242;80;25654;-74
2021/05/26 07:52:07;;;;;;;2.55;1.32;;;;;;;14.16;58.41;100491.83;1735632;80;31630;-72
2021/05/26 07:54:32;;;;;;;4.92;1.12;;;;;;;14.21;58.51;100499.48;1757408;80;25620;-72
2021/05/26 07:56:59;;;;;;;3.27;0.95;;;;;;;14.31;59.07;100498.35;1755724;80;25353;-73
2021/05/26 07:59:26;;;;;;;2.83;1.22;;;;;;;14.31;58.39;100493.09;1758767;80;25260;-73
2021/05/26 08:01:52;;;;;;;4.62;1.27;;;;;;;14.29;58.52;100488.52;1753320;80;25956;-73
2021/05/26 08:04:18;;;;;;;3.83;1.20;;;;;;;14.27;58.79;100495.77;1753774;80;31345;-74
2021/05/26 08:06:44;;;;;;;2.35;1.25;;;;;;;14.27;58.70;100493.97;1754490;80;25431;-73
2021/05/26 08:09:10;;;;;;;3.58;1.22;;;;;;;14.32;58.00;100485.03;1757593;80;34682;-73
2021/05/26 08:11:36;;;;;;;6.45;1.52;;;;;;;14.48;57.31;100489.72;1757121;80;32719;-73
2021/05/26 08:14:02;;;;;;;4.10;1.17;;;;;;;14.59;58.16;100492.69;1755312;80;26191;-73
2021/05/26 08:16:28;;;;;;;3.42;1.25;;;;;;;14.75;57.64;100484.23;1755074;80;25688;-73
2021/05/26 08:18:54;;;;;;;2.65;1.00;;;;;;;14.82;57.49;100474.09;1752418;80;30214;-74
2021/05/26 08:21:21;;;;;;;3.37;1.07;;;;;;;14.78;55.96;100482.03;1754843;80;35032;-72
2021/05/26 08:23:47;;;;;;;4.70;1.27;;;;;;;14.66;55.90;100486.19;1756095;80;25557;-72
2021/05/26 08:26:22;;;;;;;5.25;1.07;;;;;;;14.57;56.09;100480.25;1757522;80;25597;-73
2021/05/26 08:28:53;;;;;;;2.20;1.00;;;;;;;14.55;56.49;100488.01;1754183;80;25785;-74
2021/05/26 08:31:21;;;;;;;3.40;0.90;;;;;;;14.51;56.01;100498.55;1757382;80;25441;-74
2021/05/26 08:33:47;;;;;;;3.50;1.25;;;;;;;14.50;56.03;100491.67;1757936;80;25568;-74
2021/05/26 08:36:13;;;;;;;4.60;1.22;;;;;;;14.42;55.69;100486.83;1755809;80;25164;-73
2021/05/26 08:38:39;;;;;;;3.15;1.15;;;;;;;14.41;55.90;100496.24;1755934;80;25943;-75
2021/05/26 08:41:07;;;;;;;5.10;1.15;;;;;;;14.34;55.28;100488.77;1750535;80;25750;-75
2021/05/26 08:43:39;;;;;;;3.17;1.15;;;;;;;14.32;55.75;100489.45;1757108;80;25193;-73
2021/05/26 08:46:08;;;;;;;3.50;1.35;;;;;;;14.40;56.04;100491.96;1754337;80;25628;-74
2021/05/26 08:48:35;;;;;;;4.65;1.37;;;;;;;14.49;56.22;100494.00;1759096;80;25199;-74
2021/05/26 08:51:05;;;;;;;4.28;1.00;;;;;;;14.59;56.51;100490.06;1756647;80;25497;-75
2021/05/26 08:53:33;;;;;;;3.42;1.27;;;;;;;14.63;55.47;100493.95;1761031;80;25588;-73
2021/05/26 08:55:59;;;;;;;3.62;1.25;;;;;;;14.68;54.25;100492.09;1754842;80;26111;-73
2021/05/26 08:58:25;;;;;;;2.98;1.02;;;;;;;14.62;53.92;100492.81;1752949;80;34704;-74
2021/05/26 09:00:51;;;;;;;3.87;1.30;;;;;;;14.58;54.23;100495.02;1756667;80;25533;-74
2021/05/26 09:03:17;;;;;;;3.87;1.20;;;;;;;14.56;53.05;100487.80;1755028;80;25504;-74
2021/05/26 09:05:54;;;;;;;6.17;1.07;;;;;;;14.63;54.38;100491.83;1756851;80;33087;-74
2021/05/26 09:08:25;;;;;;;3.55;1.00;;;;;;;14.74;54.43;100478.67;1758767;80;25589;-73
2021/05/26 09:11:00;;;;;;;5.37;1.22;;;;;;;14.88;54.39;100479.90;1709122;82;25264;-73
2021/05/26 09:13:36;;;;;;;2.87;1.10;;;;;;;14.97;53.82;100478.44;1754799;80;25447;-74
2021/05/26 09:16:27;;;;;;;5.78;1.12;;;;;;;15.05;54.10;100475.67;1755334;80;25802;-75
2021/05/26 09:19:00;;;;;;;3.65;1.10;;;;;;;15.13;52.37;100471.58;1752601;80;25580;-75
2021/05/26 09:21:46;;;;;;;3.55;1.00;;;;;;;15.17;51.53;100462.78;1753462;80;25342;-75
2021/05/26 09:24:24;;;;;;;3.05;0.90;;;;;;;15.20;53.58;100469.01;1755427;80;25228;-75
2021/05/26 09:27:03;;;;;;;7.35;2.02;;;;;;;15.30;53.88;100474.72;1755346;80;25175;-75
2021/05/26 09:29:35;;;;;;;2.05;1.25;;;;;;;15.37;52.36;100475.59;1755361;80;25692;-74
2021/05/26 09:32:26;;;;;;;5.12;1.35;;;;;;;15.38;53.38;100470.62;1754405;80;25241;-75
2021/05/26 09:34:56;;;;;;;3.15;0.98;;;;;;;15.40;53.27;100471.75;1752011;80;25718;-74
2021/05/26 09:37:26;;;;;;;3.12;1.12;;;;;;;15.42;52.14;100477.14;1757137;80;25178;-74
2021/05/26 09:40:13;;;;;;;4.25;1.25;;;;;;;15.37;51.70;100469.00;1760401;80;25166;-74
2021/05/26 09:42:46;;;;;;;4.58;1.55;;;;;;;15.30;51.04;100465.50;1759621;80;25604;-75
2021/05/26 09:45:27;;;;;;;2.87;1.20;;;;;;;15.28;51.17;100464.40;1752053;80;25256;-74
2021/05/26 09:47:55;;;;;;;4.42;1.45;;;;;;;15.34;51.85;100463.32;1762834;80;25380;-73
2021/05/26 09:50:36;;;;;;;4.22;1.30;;;;;;;15.45;52.62;100462.77;1763506;80;25219;-74
2021/05/26 09:53:12;;;;;;;5.12;1.20;;;;;;;15.60;52.76;100466.08;1742384;80;25465;-74
2021/05/26 09:55:46;;;;;;;7.97;1.75;;;;;;;15.72;50.69;100459.80;1766372;80;26273;-75
2021/05/26 09:58:15;;;;;;;4.28;1.50;;;;;;;15.80;52.02;100456.99;1767194;80;25219;-73
2021/05/26 10:00:44;;;;;;;3.12;1.30;;;;;;;15.94;52.26;100461.81;1763146;80;25555;-74
2021/05/26 10:03:11;;;;;;;2.42;1.25;;;;;;;16.09;52.50;100461.13;1762751;80;25576;-73
2021/05/26 10:05:37;;;;;;;4.58;1.45;;;;;;;16.20;51.67;100455.30;1764046;80;25246;-76
2021/05/26 10:08:24;;;;;;;2.95;1.30;;;;;;;16.37;51.75;100453.61;1760691;79;27369;-74
2021/05/26 10:11:10;;;;;;;4.22;1.40;;;;;;;16.48;52.75;100443.77;1760769;80;25128;-74
2021/05/26 10:13:39;;;;;;;3.65;1.45;;;;;;;16.48;50.62;100446.41;1764044;80;25557;-74
2021/05/26 10:16:06;;;;;;;7.30;1.27;;;;;;;16.49;51.73;100445.90;1762400;80;25203;-75
2021/05/26 10:18:34;;;;;;;6.33;1.65;;;;;;;16.55;50.78;100437.17;1764606;80;26416;-74
2021/05/26 10:21:00;;;;;;;6.90;1.50;;;;;;;16.56;49.94;100424.27;1763626;80;25817;-73
2021/05/26 10:23:26;;;;;;;3.20;1.40;;;;;;;16.61;49.65;100429.75;1764771;79;25444;-74
2021/05/26 10:25:54;;;;;;;4.05;1.55;;;;;;;16.70;49.73;100429.07;1762734;80;25167;-73
2021/05/26 10:28:33;;;;;;;4.00;1.35;;;;;;;16.77;48.67;100435.98;1765498;80;25577;-73
2021/05/26 10:31:02;;;;;;;5.63;1.20;;;;;;;16.74;48.50;100434.23;1765336;80;25856;-74
2021/05/26 10:33:48;;;;;;;2.90;1.10;;;;;;;16.68;47.73;100426.62;1764327;80;25503;-74
2021/05/26 10:36:14;;;;;;;4.62;1.40;;;;;;;16.71;47.64;100428.84;1706972;82;25341;-74
2021/05/26 10:38:58;;;;;;;6.80;1.27;;;;;;;16.87;47.86;100411.81;1686520;82;25456;-74
2021/05/26 10:41:26;;;;;;;3.52;1.22;;;;;;;17.09;46.50;100415.84;1700084;82;25664;-74
2021/05/26 10:43:56;;;;;;;3.37;1.20;;;;;;;17.20;46.78;100401.70;1700086;82;25207;-74
2021/05/26 10:46:36;;;;;;;5.50;1.52;;;;;;;17.15;46.92;100409.43;1700531;82;25660;-73
2021/05/26 10:49:06;;;;;;;3.15;1.30;;;;;;;17.25;48.28;100397.93;1654569;84;25364;-73
2021/05/26 10:51:56;;;;;;;5.45;1.50;;;;;;;17.39;47.25;100395.54;1697890;82;26104;-73
2021/05/26 10:54:46;;;;;;;3.60;1.55;;;;;;;17.41;47.98;100396.66;1690141;82;25762;-73
2021/05/26 10:57:12;;;;;;;2.47;1.12;;;;;;;17.34;47.42;100396.67;1662591;84;25510;-73
2021/05/26 10:59:39;;;;;;;3.83;1.25;;;;;;;17.42;47.40;100398.28;1661869;84;25610;-73
2021/05/26 11:02:11;;;;;;;2.85;1.12;;;;;;;17.55;46.51;100392.14;1698653;82;25378;-73
2021/05/26 11:04:40;;;;;;;6.03;1.37;;;;;;;17.62;46.20;100391.06;1699372;82;25217;-73
2021/05/26 11:07:29;;;;;;;4.97;1.25;;;;;;;17.60;46.13;100393.13;1699570;82;25563;-73
2021/05/26 11:10:06;;;;;;;6.35;2.10;;;;;;;17.58;46.14;100385.91;1662937;84;25867;-74
2021/05/26 11:12:59;;;;;;;2.60;1.12;;;;;;;17.50;46.39;100388.79;1717404;80;25649;-73
2021/05/26 11:15:45;;;;;;;3.72;1.07;;;;;;;17.45;45.61;100391.25;1726280;82;25190;-74
2021/05/26 11:18:29;;;;;;;9.35;1.65;;;;;;;17.51;46.68;100385.12;1766337;80;25497;-75
2021/05/26 11:20:44;;;;;;;6.15;1.47;;;;;;;17.63;46.78;100389.25;1760924;80;25571;-75
2021/05/26 11:23:13;;;;;;;3.47;1.07;;;;;;;17.69;45.23;100384.44;1759083;80;25774;-74
2021/05/26 11:25:55;;;;;;;5.72;1.42;;;;;;;17.78;44.74;100395.58;1725356;81;25530;-73
2021/05/26 11:28:34;;;;;;;4.25;1.10;;;;;;;17.83;44.37;100378.08;1724347;81;25221;-73
2021/05/26 11:31:09;;;;;;;5.15;1.32;;;;;;;17.97;45.52;100376.17;1762044;80;25562;-74
2021/05/26 11:33:39;;;;;;;4.90;1.30;;;;;;;18.29;45.88;100369.55;1758878;80;25658;-73
2021/05/26 11:36:07;;;;;;;4.03;1.15;;;;;;;18.39;44.30;100375.17;1757318;79;26421;-73